sensor_id;sensor_type;location;lat;lon;timestamp;temperature;humidity
15819;DHT22;8010;53.986;12.106;2022-11-15T00:00:24;4.90;99.90
15819;DHT22;8010;53.986;12.106;2022-11-15T00:02:49;4.90;99.90
15819;DHT22;8010;53.986;12.106;2022-11-15T00:05:15;4.80;99.90
15819;DHT22;8010;53.986;12.106;2022-11-15T00:07:40;4.80;99.90
15819;DHT22;8010;53.986;12.106;2022-11-15T00:10:06;4.80;99.90
15819;DHT22;8010;53.986;12.106;2022-11-15T00:12:31;4.80;99.90
15819;DHT22;8010;53.986;12.106;2022-11-15T00:14:57;4.70;99.90
15819;DHT22;8010;53.986;12.106;2022-11-15T00:17:23;4.70;99.90
15819;DHT22;8010;53.986;12.106;2022-11-15T00:19:48;4.70;99.90
15819;DHT22;8010;53.986;12.106;2022-11-15T00:22:14;4.70;99.90
15819;DHT22;8010;53.986;12.106;2022-11-15T00:24:40;4.70;99.90
15819;DHT22;8010;53.986;12.106;2022-11-15T00:27:05;4.70;99.90
15819;DHT22;8010;53.986;12.106;2022-11-15T00:29:31;4.70;99.90
15819;DHT22;8010;53.986;12.106;2022-11-15T00:31:56;4.70;99.90
15819;DHT22;8010;53.986;12.106;2022-11-15T00:34:22;4.70;99.90
15819;DHT22;8010;53.986;12.106;2022-11-15T00:36:47;4.70;99.90
15819;DHT22;8010;53.986;12.106;2022-11-15T00:39:13;4.70;99.90
15819;DHT22;8010;53.986;12.106;2022-11-15T00:41:38;4.70;99.90
15819;DHT22;8010;53.986;12.106;2022-11-15T00:44:03;4.60;99.90
15819;DHT22;8010;53.986;12.106;2022-11-15T00:46:29;4.60;99.90
15819;DHT22;8010;53.986;12.106;2022-11-15T00:48:55;4.70;99.90
15819;DHT22;8010;53.986;12.106;2022-11-15T00:51:20;4.60;99.90
15819;DHT22;8010;53.986;12.106;2022-11-15T00:53:46;4.60;99.90
15819;DHT22;8010;53.986;12.106;2022-11-15T00:56:11;4.60;99.90
15819;DHT22;8010;53.986;12.106;2022-11-15T00:58:37;4.60;99.90
15819;DHT22;8010;53.986;12.106;2022-11-15T01:01:07;4.60;99.90
15819;DHT22;8010;53.986;12.106;2022-11-15T01:03:34;4.60;99.90
15819;DHT22;8010;53.986;12.106;2022-11-15T01:06:00;4.60;99.90
15819;DHT22;8010;53.986;12.106;2022-11-15T01:08:25;4.60;99.90
15819;DHT22;8010;53.986;12.106;2022-11-15T01:10:51;4.60;99.90
15819;DHT22;8010;53.986;12.106;2022-11-15T01:13:16;4.60;99.90
15819;DHT22;8010;53.986;12.106;2022-11-15T01:15:42;4.60;99.90
15819;DHT22;8010;53.986;12.106;2022-11-15T01:18:08;4.60;99.90
15819;DHT22;8010;53.986;12.106;2022-11-15T01:20:33;4.60;99.90
15819;DHT22;8010;53.986;12.106;2022-11-15T01:22:59;4.70;99.90
15819;DHT22;8010;53.986;12.106;2022-11-15T01:25:24;4.70;99.90
15819;DHT22;8010;53.986;12.106;2022-11-15T01:27:50;4.70;99.90
15819;DHT22;8010;53.986;12.106;2022-11-15T01:30:16;4.60;99.90
15819;DHT22;8010;53.986;12.106;2022-11-15T01:32:41;4.70;99.90
15819;DHT22;8010;53.986;12.106;2022-11-15T01:35:07;4.70;99.90
15819;DHT22;8010;53.986;12.106;2022-11-15T01:37:32;4.80;99.90
15819;DHT22;8010;53.986;12.106;2022-11-15T01:39:58;4.80;99.90
15819;DHT22;8010;53.986;12.106;2022-11-15T01:42:23;4.80;99.90
15819;DHT22;8010;53.986;12.106;2022-11-15T01:44:50;4.80;99.90
15819;DHT22;8010;53.986;12.106;2022-11-15T01:47:19;4.80;99.90
15819;DHT22;8010;53.986;12.106;2022-11-15T01:49:52;4.80;99.90
15819;DHT22;8010;53.986;12.106;2022-11-15T01:52:22;4.80;99.90
15819;DHT22;8010;53.986;12.106;2022-11-15T01:54:55;4.80;99.90
15819;DHT22;8010;53.986;12.106;2022-11-15T01:57:22;4.70;99.90
15819;DHT22;8010;53.986;12.106;2022-11-15T01:59:47;4.70;99.90
15819;DHT22;8010;53.986;12.106;2022-11-15T02:02:13;4.80;99.90
15819;DHT22;8010;53.986;12.106;2022-11-15T02:04:45;4.80;99.90
15819;DHT22;8010;53.986;12.106;2022-11-15T02:07:12;4.80;99.90
15819;DHT22;8010;53.986;12.106;2022-11-15T02:09:39;4.80;99.90
15819;DHT22;8010;53.986;12.106;2022-11-15T02:12:06;4.70;99.90
15819;DHT22;8010;53.986;12.106;2022-11-15T02:14:34;4.70;99.90
15819;DHT22;8010;53.986;12.106;2022-11-15T02:17:29;4.70;99.90
15819;DHT22;8010;53.986;12.106;2022-11-15T02:26:31;4.70;99.90
15819;DHT22;8010;53.986;12.106;2022-11-15T02:29:08;4.70;99.90
15819;DHT22;8010;53.986;12.106;2022-11-15T02:32:02;4.60;99.90
15819;DHT22;8010;53.986;12.106;2022-11-15T02:34:45;4.60;99.90
15819;DHT22;8010;53.986;12.106;2022-11-15T02:37:47;4.50;99.90
15819;DHT22;8010;53.986;12.106;2022-11-15T02:40:27;4.50;99.90
15819;DHT22;8010;53.986;12.106;2022-11-15T02:43:02;4.50;99.90
15819;DHT22;8010;53.986;12.106;2022-11-15T02:45:53;4.40;99.90
15819;DHT22;8010;53.986;12.106;2022-11-15T02:48:22;4.30;99.90
15819;DHT22;8010;53.986;12.106;2022-11-15T02:50:48;4.30;99.90
15819;DHT22;8010;53.986;12.106;2022-11-15T02:53:15;4.20;99.90
15819;DHT22;8010;53.986;12.106;2022-11-15T02:55:45;4.20;99.90
15819;DHT22;8010;53.986;12.106;2022-11-15T02:58:44;4.20;99.90
15819;DHT22;8010;53.986;12.106;2022-11-15T03:04:14;4.20;99.90
15819;DHT22;8010;53.986;12.106;2022-11-15T03:09:37;4.10;99.90
15819;DHT22;8010;53.986;12.106;2022-11-15T03:12:25;4.10;99.90
15819;DHT22;8010;53.986;12.106;2022-11-15T03:15:00;4.00;99.90
15819;DHT22;8010;53.986;12.106;2022-11-15T03:17:35;3.90;99.90
15819;DHT22;8010;53.986;12.106;2022-11-15T03:20:05;3.80;99.90
15819;DHT22;8010;53.986;12.106;2022-11-15T03:22:36;3.70;99.90
15819;DHT22;8010;53.986;12.106;2022-11-15T03:25:06;3.70;99.90
15819;DHT22;8010;53.986;12.106;2022-11-15T03:27:36;3.70;99.90
15819;DHT22;8010;53.986;12.106;2022-11-15T03:30:07;3.80;99.90
15819;DHT22;8010;53.986;12.106;2022-11-15T03:32:37;3.80;99.90
15819;DHT22;8010;53.986;12.106;2022-11-15T03:35:14;3.80;99.90
15819;DHT22;8010;53.986;12.106;2022-11-15T03:40:24;3.90;99.90
15819;DHT22;8010;53.986;12.106;2022-11-15T03:45:46;4.00;99.90
15819;DHT22;8010;53.986;12.106;2022-11-15T03:48:21;4.00;99.90
15819;DHT22;8010;53.986;12.106;2022-11-15T03:50:48;4.00;99.90
15819;DHT22;8010;53.986;12.106;2022-11-15T03:53:14;4.00;99.90
15819;DHT22;8010;53.986;12.106;2022-11-15T03:55:40;4.10;99.90
15819;DHT22;8010;53.986;12.106;2022-11-15T03:58:05;4.10;99.90
15819;DHT22;8010;53.986;12.106;2022-11-15T04:00:31;4.10;99.90
15819;DHT22;8010;53.986;12.106;2022-11-15T04:02:57;4.00;99.90
15819;DHT22;8010;53.986;12.106;2022-11-15T04:05:23;4.00;99.90
15819;DHT22;8010;53.986;12.106;2022-11-15T04:07:48;3.90;99.90
15819;DHT22;8010;53.986;12.106;2022-11-15T04:10:14;3.80;99.90
15819;DHT22;8010;53.986;12.106;2022-11-15T04:12:41;3.80;99.90
15819;DHT22;8010;53.986;12.106;2022-11-15T04:15:16;3.70;99.90
15819;DHT22;8010;53.986;12.106;2022-11-15T04:17:50;3.70;99.90
15819;DHT22;8010;53.986;12.106;2022-11-15T04:20:22;3.70;99.90
15819;DHT22;8010;53.986;12.106;2022-11-15T04:23:10;3.70;99.90
15819;DHT22;8010;53.986;12.106;2022-11-15T04:25:55;3.70;99.90
15819;DHT22;8010;53.986;12.106;2022-11-15T04:28:21;3.80;99.90
15819;DHT22;8010;53.986;12.106;2022-11-15T04:30:47;3.70;99.90
15819;DHT22;8010;53.986;12.106;2022-11-15T04:33:12;3.70;99.90
15819;DHT22;8010;53.986;12.106;2022-11-15T04:35:38;3.60;99.90
15819;DHT22;8010;53.986;12.106;2022-11-15T04:38:06;3.60;99.90
15819;DHT22;8010;53.986;12.106;2022-11-15T04:40:32;3.50;99.90
15819;DHT22;8010;53.986;12.106;2022-11-15T04:42:57;3.50;99.90
15819;DHT22;8010;53.986;12.106;2022-11-15T04:45:23;3.50;99.90
15819;DHT22;8010;53.986;12.106;2022-11-15T04:47:48;3.50;99.90
15819;DHT22;8010;53.986;12.106;2022-11-15T04:50:15;3.50;99.90
15819;DHT22;8010;53.986;12.106;2022-11-15T04:52:42;3.50;99.90
15819;DHT22;8010;53.986;12.106;2022-11-15T04:55:10;3.50;99.90
15819;DHT22;8010;53.986;12.106;2022-11-15T04:57:35;3.60;99.90
15819;DHT22;8010;53.986;12.106;2022-11-15T05:00:06;3.60;99.90
15819;DHT22;8010;53.986;12.106;2022-11-15T05:02:33;3.60;99.90
15819;DHT22;8010;53.986;12.106;2022-11-15T05:05:17;3.70;99.90
15819;DHT22;8010;53.986;12.106;2022-11-15T05:07:43;3.60;99.90
15819;DHT22;8010;53.986;12.106;2022-11-15T05:10:08;3.60;99.90
15819;DHT22;8010;53.986;12.106;2022-11-15T05:12:34;3.60;99.90
15819;DHT22;8010;53.986;12.106;2022-11-15T05:15:00;3.60;99.90
15819;DHT22;8010;53.986;12.106;2022-11-15T05:17:25;3.50;99.90
15819;DHT22;8010;53.986;12.106;2022-11-15T05:19:51;3.50;99.90
15819;DHT22;8010;53.986;12.106;2022-11-15T05:22:17;3.50;99.90
15819;DHT22;8010;53.986;12.106;2022-11-15T05:24:43;3.40;99.90
15819;DHT22;8010;53.986;12.106;2022-11-15T05:27:08;3.40;99.90
15819;DHT22;8010;53.986;12.106;2022-11-15T05:29:34;3.40;99.90
15819;DHT22;8010;53.986;12.106;2022-11-15T05:31:59;3.30;99.90
15819;DHT22;8010;53.986;12.106;2022-11-15T05:34:25;3.30;99.90
15819;DHT22;8010;53.986;12.106;2022-11-15T05:36:52;3.30;99.90
15819;DHT22;8010;53.986;12.106;2022-11-15T05:39:17;3.20;99.90
15819;DHT22;8010;53.986;12.106;2022-11-15T05:41:46;3.20;99.90
15819;DHT22;8010;53.986;12.106;2022-11-15T05:44:15;3.10;99.90
15819;DHT22;8010;53.986;12.106;2022-11-15T05:46:42;3.10;99.90
15819;DHT22;8010;53.986;12.106;2022-11-15T05:49:11;3.10;99.90
15819;DHT22;8010;53.986;12.106;2022-11-15T05:51:39;3.10;99.90
15819;DHT22;8010;53.986;12.106;2022-11-15T05:54:05;3.10;99.90
15819;DHT22;8010;53.986;12.106;2022-11-15T05:56:30;3.10;99.90
15819;DHT22;8010;53.986;12.106;2022-11-15T05:58:57;3.00;99.90
15819;DHT22;8010;53.986;12.106;2022-11-15T06:01:25;3.00;99.90
15819;DHT22;8010;53.986;12.106;2022-11-15T06:03:51;3.00;99.90
15819;DHT22;8010;53.986;12.106;2022-11-15T06:06:19;3.00;99.90
15819;DHT22;8010;53.986;12.106;2022-11-15T06:08:44;3.10;99.90
15819;DHT22;8010;53.986;12.106;2022-11-15T06:11:10;3.10;99.90
15819;DHT22;8010;53.986;12.106;2022-11-15T06:13:35;3.10;99.90
15819;DHT22;8010;53.986;12.106;2022-11-15T06:16:01;3.10;99.90
15819;DHT22;8010;53.986;12.106;2022-11-15T06:18:26;3.10;99.90
15819;DHT22;8010;53.986;12.106;2022-11-15T06:20:52;3.10;99.90
15819;DHT22;8010;53.986;12.106;2022-11-15T06:23:18;3.10;99.90
15819;DHT22;8010;53.986;12.106;2022-11-15T06:25:43;3.10;99.90
15819;DHT22;8010;53.986;12.106;2022-11-15T06:28:09;3.10;99.90
15819;DHT22;8010;53.986;12.106;2022-11-15T06:30:34;3.20;99.90
15819;DHT22;8010;53.986;12.106;2022-11-15T06:33:01;3.30;99.90
15819;DHT22;8010;53.986;12.106;2022-11-15T06:35:28;3.40;99.90
15819;DHT22;8010;53.986;12.106;2022-11-15T06:37:53;3.40;99.90
15819;DHT22;8010;53.986;12.106;2022-11-15T06:40:19;3.40;99.90
15819;DHT22;8010;53.986;12.106;2022-11-15T06:42:44;3.50;99.90
15819;DHT22;8010;53.986;12.106;2022-11-15T06:45:10;3.50;99.90
15819;DHT22;8010;53.986;12.106;2022-11-15T06:47:35;3.60;99.90
15819;DHT22;8010;53.986;12.106;2022-11-15T06:50:01;3.60;99.90
15819;DHT22;8010;53.986;12.106;2022-11-15T06:52:26;3.80;99.90
15819;DHT22;8010;53.986;12.106;2022-11-15T06:54:57;3.80;99.90
15819;DHT22;8010;53.986;12.106;2022-11-15T06:57:23;3.80;99.90
15819;DHT22;8010;53.986;12.106;2022-11-15T06:59:48;3.90;99.90
15819;DHT22;8010;53.986;12.106;2022-11-15T07:02:14;4.00;99.90
15819;DHT22;8010;53.986;12.106;2022-11-15T07:04:39;4.00;99.90
15819;DHT22;8010;53.986;12.106;2022-11-15T07:07:05;4.10;99.90
15819;DHT22;8010;53.986;12.106;2022-11-15T07:09:31;4.20;99.90
15819;DHT22;8010;53.986;12.106;2022-11-15T07:11:56;4.30;99.90
15819;DHT22;8010;53.986;12.106;2022-11-15T07:14:22;4.40;99.90
15819;DHT22;8010;53.986;12.106;2022-11-15T07:16:47;4.50;99.90
15819;DHT22;8010;53.986;12.106;2022-11-15T07:19:13;4.50;99.90
15819;DHT22;8010;53.986;12.106;2022-11-15T07:21:38;4.60;99.90
15819;DHT22;8010;53.986;12.106;2022-11-15T07:24:04;4.60;99.90
15819;DHT22;8010;53.986;12.106;2022-11-15T07:26:29;4.70;99.90
15819;DHT22;8010;53.986;12.106;2022-11-15T07:28:55;4.70;99.90
15819;DHT22;8010;53.986;12.106;2022-11-15T07:31:20;4.80;99.90
15819;DHT22;8010;53.986;12.106;2022-11-15T07:33:46;4.80;99.90
15819;DHT22;8010;53.986;12.106;2022-11-15T07:36:11;4.90;99.90
15819;DHT22;8010;53.986;12.106;2022-11-15T07:38:37;4.90;99.90
15819;DHT22;8010;53.986;12.106;2022-11-15T07:41:05;5.00;99.90
15819;DHT22;8010;53.986;12.106;2022-11-15T07:43:31;5.10;99.90
15819;DHT22;8010;53.986;12.106;2022-11-15T07:45:59;5.10;99.90
15819;DHT22;8010;53.986;12.106;2022-11-15T07:48:29;5.20;99.90
15819;DHT22;8010;53.986;12.106;2022-11-15T07:50:55;5.20;99.90
15819;DHT22;8010;53.986;12.106;2022-11-15T07:53:20;5.30;99.90
15819;DHT22;8010;53.986;12.106;2022-11-15T07:55:46;5.30;99.90
15819;DHT22;8010;53.986;12.106;2022-11-15T07:58:12;5.40;99.90
15819;DHT22;8010;53.986;12.106;2022-11-15T08:00:38;5.40;99.90
15819;DHT22;8010;53.986;12.106;2022-11-15T08:03:05;5.40;99.90
15819;DHT22;8010;53.986;12.106;2022-11-15T08:05:32;5.50;99.90
15819;DHT22;8010;53.986;12.106;2022-11-15T08:07:58;5.60;99.90
15819;DHT22;8010;53.986;12.106;2022-11-15T08:10:24;5.60;99.90
15819;DHT22;8010;53.986;12.106;2022-11-15T08:13:01;5.70;99.90
15819;DHT22;8010;53.986;12.106;2022-11-15T08:15:28;5.80;99.90
15819;DHT22;8010;53.986;12.106;2022-11-15T08:17:58;7.30;99.90
15819;DHT22;8010;53.986;12.106;2022-11-15T08:20:25;5.90;99.90
15819;DHT22;8010;53.986;12.106;2022-11-15T08:22:51;6.00;99.90
15819;DHT22;8010;53.986;12.106;2022-11-15T08:25:16;6.10;99.90
15819;DHT22;8010;53.986;12.106;2022-11-15T08:27:42;6.10;99.90
15819;DHT22;8010;53.986;12.106;2022-11-15T08:30:08;6.10;99.90
15819;DHT22;8010;53.986;12.106;2022-11-15T08:32:34;6.20;99.90
15819;DHT22;8010;53.986;12.106;2022-11-15T08:34:59;6.20;99.90
15819;DHT22;8010;53.986;12.106;2022-11-15T08:37:25;6.20;99.90
15819;DHT22;8010;53.986;12.106;2022-11-15T08:39:50;6.30;99.90
15819;DHT22;8010;53.986;12.106;2022-11-15T08:42:16;6.30;99.90
15819;DHT22;8010;53.986;12.106;2022-11-15T08:44:42;6.40;99.90
15819;DHT22;8010;53.986;12.106;2022-11-15T08:47:08;6.40;99.90
15819;DHT22;8010;53.986;12.106;2022-11-15T08:49:35;6.50;99.90
15819;DHT22;8010;53.986;12.106;2022-11-15T08:52:01;6.50;99.90
15819;DHT22;8010;53.986;12.106;2022-11-15T08:54:26;6.50;99.90
15819;DHT22;8010;53.986;12.106;2022-11-15T08:56:52;6.50;99.90
15819;DHT22;8010;53.986;12.106;2022-11-15T08:59:17;6.60;99.90
15819;DHT22;8010;53.986;12.106;2022-11-15T09:01:43;6.60;99.90
15819;DHT22;8010;53.986;12.106;2022-11-15T09:04:08;6.60;99.90
15819;DHT22;8010;53.986;12.106;2022-11-15T09:06:34;6.60;99.90
15819;DHT22;8010;53.986;12.106;2022-11-15T09:09:01;6.70;99.90
15819;DHT22;8010;53.986;12.106;2022-11-15T09:11:26;6.70;99.90
15819;DHT22;8010;53.986;12.106;2022-11-15T09:13:53;6.80;99.90
15819;DHT22;8010;53.986;12.106;2022-11-15T09:16:18;6.80;99.90
15819;DHT22;8010;53.986;12.106;2022-11-15T09:18:44;6.80;99.90
15819;DHT22;8010;53.986;12.106;2022-11-15T09:21:10;6.90;99.90
15819;DHT22;8010;53.986;12.106;2022-11-15T09:23:36;6.90;99.90
15819;DHT22;8010;53.986;12.106;2022-11-15T09:26:03;7.00;99.90
15819;DHT22;8010;53.986;12.106;2022-11-15T09:28:29;7.00;99.90
15819;DHT22;8010;53.986;12.106;2022-11-15T09:30:59;7.00;99.90
15819;DHT22;8010;53.986;12.106;2022-11-15T09:33:25;7.10;99.90
15819;DHT22;8010;53.986;12.106;2022-11-15T09:35:51;7.10;99.90
15819;DHT22;8010;53.986;12.106;2022-11-15T09:38:17;7.10;99.90
15819;DHT22;8010;53.986;12.106;2022-11-15T09:40:43;7.20;99.90
15819;DHT22;8010;53.986;12.106;2022-11-15T09:43:47;7.20;99.90
15819;DHT22;8010;53.986;12.106;2022-11-15T09:48:51;7.30;99.90
15819;DHT22;8010;53.986;12.106;2022-11-15T09:54:28;7.40;99.90
15819;DHT22;8010;53.986;12.106;2022-11-15T09:57:18;7.40;99.90
15819;DHT22;8010;53.986;12.106;2022-11-15T10:04:49;7.60;99.90
15819;DHT22;8010;53.986;12.106;2022-11-15T10:07:50;7.70;99.90
15819;DHT22;8010;53.986;12.106;2022-11-15T10:12:57;7.80;99.90
15819;DHT22;8010;53.986;12.106;2022-11-15T10:15:24;7.90;99.90
15819;DHT22;8010;53.986;12.106;2022-11-15T10:20:48;8.00;99.90
15819;DHT22;8010;53.986;12.106;2022-11-15T10:23:17;8.10;99.90
15819;DHT22;8010;53.986;12.106;2022-11-15T10:25:43;8.20;99.90
15819;DHT22;8010;53.986;12.106;2022-11-15T10:30:46;8.30;99.90
15819;DHT22;8010;53.986;12.106;2022-11-15T10:35:43;8.50;99.90
15819;DHT22;8010;53.986;12.106;2022-11-15T10:38:10;8.60;99.90
15819;DHT22;8010;53.986;12.106;2022-11-15T10:40:38;8.60;99.90
15819;DHT22;8010;53.986;12.106;2022-11-15T10:45:36;8.80;99.90
15819;DHT22;8010;53.986;12.106;2022-11-15T10:50:43;8.80;99.90
15819;DHT22;8010;53.986;12.106;2022-11-15T10:53:23;8.90;99.90
15819;DHT22;8010;53.986;12.106;2022-11-15T10:55:51;8.90;99.90
15819;DHT22;8010;53.986;12.106;2022-11-15T11:00:53;9.10;99.90
15819;DHT22;8010;53.986;12.106;2022-11-15T11:03:35;9.10;99.90
15819;DHT22;8010;53.986;12.106;2022-11-15T11:06:05;9.20;99.90
15819;DHT22;8010;53.986;12.106;2022-11-15T11:08:31;9.30;99.90
15819;DHT22;8010;53.986;12.106;2022-11-15T11:10:59;9.40;99.90
15819;DHT22;8010;53.986;12.106;2022-11-15T11:16:21;9.60;99.90
15819;DHT22;8010;53.986;12.106;2022-11-15T11:19:03;9.60;99.90
15819;DHT22;8010;53.986;12.106;2022-11-15T11:21:38;9.70;99.90
15819;DHT22;8010;53.986;12.106;2022-11-15T11:24:33;9.80;99.90
15819;DHT22;8010;53.986;12.106;2022-11-15T11:30:02;9.90;99.90
15819;DHT22;8010;53.986;12.106;2022-11-15T11:32:50;9.90;99.90
15819;DHT22;8010;53.986;12.106;2022-11-15T11:41:30;10.00;99.90
15819;DHT22;8010;53.986;12.106;2022-11-15T11:44:11;10.00;99.90
15819;DHT22;8010;53.986;12.106;2022-11-15T11:46:59;10.00;99.90
15819;DHT22;8010;53.986;12.106;2022-11-15T11:49:59;10.00;99.90
15819;DHT22;8010;53.986;12.106;2022-11-15T11:52:35;10.10;99.90
15819;DHT22;8010;53.986;12.106;2022-11-15T11:55:22;10.20;99.90
15819;DHT22;8010;53.986;12.106;2022-11-15T11:58:06;10.30;99.90
15819;DHT22;8010;53.986;12.106;2022-11-15T12:00:46;10.50;99.90
15819;DHT22;8010;53.986;12.106;2022-11-15T12:03:30;10.50;99.90
15819;DHT22;8010;53.986;12.106;2022-11-15T12:06:04;10.60;99.90
15819;DHT22;8010;53.986;12.106;2022-11-15T12:08:50;10.60;99.90
15819;DHT22;8010;53.986;12.106;2022-11-15T12:11:22;10.60;99.90
15819;DHT22;8010;53.986;12.106;2022-11-15T12:13:55;10.70;99.90
15819;DHT22;8010;53.986;12.106;2022-11-15T12:16:27;10.70;99.90
15819;DHT22;8010;53.986;12.106;2022-11-15T12:18:55;10.70;99.90
15819;DHT22;8010;53.986;12.106;2022-11-15T12:21:33;10.70;99.90
15819;DHT22;8010;53.986;12.106;2022-11-15T12:24:07;10.70;99.90
15819;DHT22;8010;53.986;12.106;2022-11-15T12:26:40;10.60;99.90
15819;DHT22;8010;53.986;12.106;2022-11-15T12:29:20;10.70;99.90
15819;DHT22;8010;53.986;12.106;2022-11-15T12:31:53;11.00;99.90
15819;DHT22;8010;53.986;12.106;2022-11-15T12:36:49;11.80;99.90
15819;DHT22;8010;53.986;12.106;2022-11-15T12:39:16;12.20;99.90
15819;DHT22;8010;53.986;12.106;2022-11-15T12:59:55;13.40;99.90
15819;DHT22;8010;53.986;12.106;2022-11-15T13:02:36;13.10;99.90
15819;DHT22;8010;53.986;12.106;2022-11-15T13:30:50;12.70;99.90
15819;DHT22;8010;53.986;12.106;2022-11-15T13:33:33;12.60;99.90
15819;DHT22;8010;53.986;12.106;2022-11-15T13:36:02;12.40;99.90
15819;DHT22;8010;53.986;12.106;2022-11-15T13:38:30;12.30;99.90
15819;DHT22;8010;53.986;12.106;2022-11-15T13:40:58;12.10;99.90
15819;DHT22;8010;53.986;12.106;2022-11-15T13:43:34;12.00;99.90
15819;DHT22;8010;53.986;12.106;2022-11-15T13:46:23;11.90;99.90
15819;DHT22;8010;53.986;12.106;2022-11-15T13:54:27;11.80;99.90
15819;DHT22;8010;53.986;12.106;2022-11-15T13:57:23;11.70;99.90
15819;DHT22;8010;53.986;12.106;2022-11-15T13:59:55;11.50;99.90
15819;DHT22;8010;53.986;12.106;2022-11-15T14:02:35;11.30;99.90
15819;DHT22;8010;53.986;12.106;2022-11-15T14:05:15;11.00;99.90
15819;DHT22;8010;53.986;12.106;2022-11-15T14:08:02;10.80;99.90
15819;DHT22;8010;53.986;12.106;2022-11-15T14:10:34;10.70;99.90
15819;DHT22;8010;53.986;12.106;2022-11-15T14:13:00;10.60;99.90
15819;DHT22;8010;53.986;12.106;2022-11-15T14:17:54;10.40;99.90
15819;DHT22;8010;53.986;12.106;2022-11-15T14:20:31;10.20;99.90
15819;DHT22;8010;53.986;12.106;2022-11-15T14:23:24;10.10;99.90
15819;DHT22;8010;53.986;12.106;2022-11-15T14:25:55;10.00;99.90
15819;DHT22;8010;53.986;12.106;2022-11-15T14:30:52;9.70;99.90
15819;DHT22;8010;53.986;12.106;2022-11-15T14:35:43;9.50;99.90
15819;DHT22;8010;53.986;12.106;2022-11-15T14:38:09;9.40;99.90
15819;DHT22;8010;53.986;12.106;2022-11-15T14:40:34;9.30;99.90
15819;DHT22;8010;53.986;12.106;2022-11-15T14:43:00;9.20;99.90
15819;DHT22;8010;53.986;12.106;2022-11-15T14:45:27;9.20;99.90
15819;DHT22;8010;53.986;12.106;2022-11-15T14:47:52;9.10;99.90
15819;DHT22;8010;53.986;12.106;2022-11-15T14:50:20;9.10;99.90
15819;DHT22;8010;53.986;12.106;2022-11-15T14:52:47;9.00;99.90
15819;DHT22;8010;53.986;12.106;2022-11-15T14:55:29;9.00;99.90
15819;DHT22;8010;53.986;12.106;2022-11-15T14:57:57;8.80;99.90
15819;DHT22;8010;53.986;12.106;2022-11-15T15:00:22;8.80;99.90
15819;DHT22;8010;53.986;12.106;2022-11-15T15:02:48;8.80;99.90
15819;DHT22;8010;53.986;12.106;2022-11-15T15:05:24;8.70;99.90
15819;DHT22;8010;53.986;12.106;2022-11-15T15:07:50;8.60;99.90
15819;DHT22;8010;53.986;12.106;2022-11-15T15:10:17;8.60;99.90
15819;DHT22;8010;53.986;12.106;2022-11-15T15:12:43;8.50;99.90
15819;DHT22;8010;53.986;12.106;2022-11-15T15:15:14;8.50;99.90
15819;DHT22;8010;53.986;12.106;2022-11-15T15:17:40;8.50;99.90
15819;DHT22;8010;53.986;12.106;2022-11-15T15:20:06;8.40;99.90
15819;DHT22;8010;53.986;12.106;2022-11-15T15:22:32;8.40;99.90
15819;DHT22;8010;53.986;12.106;2022-11-15T15:24:57;8.30;99.90
15819;DHT22;8010;53.986;12.106;2022-11-15T15:27:23;8.30;99.90
15819;DHT22;8010;53.986;12.106;2022-11-15T15:29:48;8.30;99.90
15819;DHT22;8010;53.986;12.106;2022-11-15T15:32:14;8.20;99.90
15819;DHT22;8010;53.986;12.106;2022-11-15T15:34:39;8.10;99.90
15819;DHT22;8010;53.986;12.106;2022-11-15T15:39:48;8.10;99.90
15819;DHT22;8010;53.986;12.106;2022-11-15T15:42:13;8.10;99.90
15819;DHT22;8010;53.986;12.106;2022-11-15T15:44:39;8.00;99.90
15819;DHT22;8010;53.986;12.106;2022-11-15T15:47:11;8.00;99.90
15819;DHT22;8010;53.986;12.106;2022-11-15T15:49:37;8.00;99.90
15819;DHT22;8010;53.986;12.106;2022-11-15T15:52:03;7.90;99.90
15819;DHT22;8010;53.986;12.106;2022-11-15T15:54:28;7.90;99.90
15819;DHT22;8010;53.986;12.106;2022-11-15T15:56:54;7.80;99.90
15819;DHT22;8010;53.986;12.106;2022-11-15T15:59:20;7.80;99.90
15819;DHT22;8010;53.986;12.106;2022-11-15T16:01:45;7.80;99.90
15819;DHT22;8010;53.986;12.106;2022-11-15T16:04:11;7.70;99.90
15819;DHT22;8010;53.986;12.106;2022-11-15T16:06:40;7.70;99.90
15819;DHT22;8010;53.986;12.106;2022-11-15T16:09:14;7.60;99.90
15819;DHT22;8010;53.986;12.106;2022-11-15T16:11:40;7.60;99.90
15819;DHT22;8010;53.986;12.106;2022-11-15T16:14:07;7.60;99.90
15819;DHT22;8010;53.986;12.106;2022-11-15T16:16:33;7.60;99.90
15819;DHT22;8010;53.986;12.106;2022-11-15T16:18:59;7.50;99.90
15819;DHT22;8010;53.986;12.106;2022-11-15T16:21:26;7.60;99.90
15819;DHT22;8010;53.986;12.106;2022-11-15T16:23:52;7.60;99.90
15819;DHT22;8010;53.986;12.106;2022-11-15T16:26:24;7.60;99.90
15819;DHT22;8010;53.986;12.106;2022-11-15T16:28:50;7.60;99.90
15819;DHT22;8010;53.986;12.106;2022-11-15T16:31:16;7.60;99.90
15819;DHT22;8010;53.986;12.106;2022-11-15T16:33:44;7.60;99.90
15819;DHT22;8010;53.986;12.106;2022-11-15T16:38:46;7.50;99.90
15819;DHT22;8010;53.986;12.106;2022-11-15T16:41:11;7.50;99.90
15819;DHT22;8010;53.986;12.106;2022-11-15T16:43:37;7.40;99.90
15819;DHT22;8010;53.986;12.106;2022-11-15T16:46:11;7.40;99.90
15819;DHT22;8010;53.986;12.106;2022-11-15T16:48:37;7.40;99.90
15819;DHT22;8010;53.986;12.106;2022-11-15T16:51:04;7.40;99.90
15819;DHT22;8010;53.986;12.106;2022-11-15T16:53:30;7.40;99.90
15819;DHT22;8010;53.986;12.106;2022-11-15T16:55:56;7.40;99.90
15819;DHT22;8010;53.986;12.106;2022-11-15T16:58:22;7.40;99.90
15819;DHT22;8010;53.986;12.106;2022-11-15T17:00:50;7.40;99.90
15819;DHT22;8010;53.986;12.106;2022-11-15T17:03:16;7.40;99.90
15819;DHT22;8010;53.986;12.106;2022-11-15T17:05:42;7.40;99.90
15819;DHT22;8010;53.986;12.106;2022-11-15T17:08:07;7.40;99.90
15819;DHT22;8010;53.986;12.106;2022-11-15T17:10:33;7.40;99.90
15819;DHT22;8010;53.986;12.106;2022-11-15T17:12:58;7.40;99.90
15819;DHT22;8010;53.986;12.106;2022-11-15T17:15:24;7.40;99.90
15819;DHT22;8010;53.986;12.106;2022-11-15T17:17:53;7.40;99.90
15819;DHT22;8010;53.986;12.106;2022-11-15T17:20:21;7.40;99.90
15819;DHT22;8010;53.986;12.106;2022-11-15T17:22:47;7.30;99.90
15819;DHT22;8010;53.986;12.106;2022-11-15T17:25:13;7.40;99.90
15819;DHT22;8010;53.986;12.106;2022-11-15T17:27:39;7.50;99.90
15819;DHT22;8010;53.986;12.106;2022-11-15T17:30:05;7.40;99.90
15819;DHT22;8010;53.986;12.106;2022-11-15T17:32:34;7.40;99.90
15819;DHT22;8010;53.986;12.106;2022-11-15T17:34:59;7.40;99.90
15819;DHT22;8010;53.986;12.106;2022-11-15T17:37:25;7.40;99.90
15819;DHT22;8010;53.986;12.106;2022-11-15T17:39:50;7.40;99.90
15819;DHT22;8010;53.986;12.106;2022-11-15T17:42:16;7.40;99.90
15819;DHT22;8010;53.986;12.106;2022-11-15T17:44:41;7.30;99.90
15819;DHT22;8010;53.986;12.106;2022-11-15T17:47:07;7.40;99.90
15819;DHT22;8010;53.986;12.106;2022-11-15T17:49:32;7.30;99.90
15819;DHT22;8010;53.986;12.106;2022-11-15T17:52:02;7.30;99.90
15819;DHT22;8010;53.986;12.106;2022-11-15T17:54:28;7.30;99.90
15819;DHT22;8010;53.986;12.106;2022-11-15T17:56:53;7.30;99.90
15819;DHT22;8010;53.986;12.106;2022-11-15T17:59:19;7.30;99.90